createdAt,value
2019-05-05T00:00:44.612Z,4.07
2019-05-05T00:03:15.706Z,3.40
2019-05-05T00:05:47.828Z,3.80
2019-05-05T00:08:17.116Z,3.97
2019-05-05T00:10:50.841Z,4.20
2019-05-05T00:13:21.828Z,4.07
2019-05-05T00:16:07.672Z,4.40
2019-05-05T00:18:37.025Z,4.60
2019-05-05T00:21:06.348Z,4.50
2019-05-05T00:23:35.688Z,4.40
2019-05-05T00:26:05.127Z,4.30
2019-05-05T00:28:35.415Z,4.47
2019-05-05T00:31:04.807Z,5.03
2019-05-05T00:33:34.430Z,4.63
2019-05-05T00:36:07.497Z,4.63
2019-05-05T00:38:35.317Z,4.53
2019-05-05T00:41:05.559Z,5.17
2019-05-05T00:43:34.829Z,5.20
2019-05-05T00:46:05.893Z,5.00
2019-05-05T00:48:36.818Z,5.33
2019-05-05T00:51:06.116Z,5.37
2019-05-05T00:53:36.928Z,5.63
2019-05-05T00:56:06.288Z,5.87
2019-05-05T00:58:37.215Z,5.03
2019-05-05T01:01:08.277Z,5.43
2019-05-05T01:03:37.566Z,4.80
2019-05-05T01:06:08.492Z,5.83
2019-05-05T01:08:37.848Z,6.23
2019-05-05T01:11:07.436Z,5.70
2019-05-05T01:13:36.788Z,6.20
2019-05-05T01:16:06.209Z,5.60
2019-05-05T01:18:35.569Z,5.37
2019-05-05T01:21:04.992Z,5.87
2019-05-05T01:23:34.995Z,6.17
2019-05-05T01:26:05.195Z,5.73
2019-05-05T01:28:35.533Z,5.87
2019-05-05T01:31:06.869Z,5.40
2019-05-05T01:33:54.186Z,5.93
2019-05-05T01:36:24.200Z,5.67
2019-05-05T01:38:55.340Z,5.97
2019-05-05T01:41:35.694Z,6.03
2019-05-05T01:44:05.057Z,6.00
2019-05-05T01:46:35.437Z,5.90
2019-05-05T01:49:05.367Z,5.50
2019-05-05T01:51:35.543Z,6.20
2019-05-05T01:54:05.311Z,5.50
2019-05-05T01:56:35.336Z,6.40
2019-05-05T01:59:05.282Z,6.50
2019-05-05T02:01:35.315Z,6.03
2019-05-05T02:04:05.641Z,5.27
2019-05-05T02:06:35.228Z,5.90
2019-05-05T02:09:06.242Z,6.37
2019-05-05T02:11:37.218Z,6.43
2019-05-05T02:14:06.649Z,5.97
2019-05-05T02:16:36.008Z,6.03
2019-05-05T02:19:05.304Z,5.77
2019-05-05T02:21:35.662Z,6.67
2019-05-05T02:24:05.414Z,5.97
2019-05-05T02:26:35.985Z,6.27
2019-05-05T02:29:09.665Z,6.30
2019-05-05T02:31:41.545Z,6.50
2019-05-05T02:34:11.605Z,6.73
2019-05-05T02:36:41.451Z,7.07
2019-05-05T02:39:10.908Z,7.00
2019-05-05T02:41:41.140Z,6.77
2019-05-05T02:44:15.203Z,7.57
2019-05-05T02:46:45.994Z,7.20
2019-05-05T02:49:15.698Z,7.10
2019-05-05T02:51:46.529Z,6.90
2019-05-05T02:54:17.419Z,7.10
2019-05-05T02:56:48.581Z,7.57
2019-05-05T02:59:23.748Z,7.77
2019-05-05T03:01:54.976Z,8.00
2019-05-05T03:04:24.698Z,6.97
2019-05-05T03:06:56.028Z,7.40
2019-05-05T03:09:27.526Z,6.37
2019-05-05T03:11:59.429Z,7.37
2019-05-05T03:14:31.540Z,6.50
2019-05-05T03:17:01.369Z,6.93
2019-05-05T03:19:30.785Z,7.10
2019-05-05T03:22:00.358Z,6.60
2019-05-05T03:24:30.288Z,6.60
2019-05-05T03:27:00.040Z,7.43
2019-05-05T03:29:29.333Z,7.07
2019-05-05T03:31:58.865Z,7.07
2019-05-05T03:34:28.226Z,6.43
2019-05-05T03:36:58.406Z,7.30
2019-05-05T03:39:29.849Z,6.70
2019-05-05T03:42:03.541Z,7.93
2019-05-05T03:44:35.782Z,6.87
2019-05-05T03:47:05.318Z,7.63
2019-05-05T03:49:34.670Z,6.90
2019-05-05T03:52:04.832Z,7.07
2019-05-05T03:54:34.975Z,7.03
2019-05-05T03:57:10.170Z,7.63
2019-05-05T03:59:41.638Z,7.47
2019-05-05T04:02:18.497Z,7.30
2019-05-05T04:04:52.110Z,7.30
2019-05-05T04:07:21.465Z,7.67
2019-05-05T04:09:50.821Z,7.00
2019-05-05T04:12:20.181Z,8.00
2019-05-05T04:14:51.310Z,8.50
2019-05-05T04:17:40.613Z,7.30
2019-05-05T04:20:20.694Z,7.37
2019-05-05T04:22:49.987Z,8.43
2019-05-05T04:25:19.269Z,6.97
2019-05-05T04:27:48.562Z,7.43
2019-05-05T04:30:23.495Z,7.07
2019-05-05T04:32:54.562Z,8.20
2019-05-05T04:35:24.663Z,6.63
2019-05-05T04:37:54.876Z,7.57
2019-05-05T04:40:24.279Z,7.37
2019-05-05T04:42:54.685Z,7.60
2019-05-05T04:45:24.328Z,6.93
2019-05-05T04:47:57.765Z,6.90
2019-05-05T04:50:45.047Z,7.07
2019-05-05T04:53:18.689Z,6.83
2019-05-05T04:55:47.979Z,6.87
2019-05-05T04:58:18.183Z,7.00
2019-05-05T05:00:47.473Z,6.90
2019-05-05T05:03:34.637Z,6.83
2019-05-05T05:06:08.813Z,6.50
2019-05-05T05:08:38.119Z,5.30
2019-05-05T05:11:07.402Z,5.70
2019-05-05T05:13:36.775Z,4.20
2019-05-05T05:16:06.138Z,4.77
2019-05-05T05:18:35.420Z,5.03
2019-05-05T05:21:04.718Z,4.80
2019-05-05T05:23:34.224Z,5.00
2019-05-05T05:26:05.124Z,4.50
2019-05-05T05:28:34.531Z,4.10
2019-05-05T05:31:04.049Z,3.70
2019-05-05T05:33:34.600Z,4.30
2019-05-05T05:36:04.235Z,3.90
2019-05-05T05:38:34.661Z,3.83
2019-05-05T05:41:13.589Z,3.87
2019-05-05T05:43:45.145Z,3.70
2019-05-05T05:46:16.073Z,3.77
2019-05-05T05:49:01.822Z,3.60
2019-05-05T05:51:31.127Z,3.80
2019-05-05T05:54:00.423Z,4.07
2019-05-05T05:56:31.291Z,3.77
2019-05-05T05:59:00.586Z,3.10
2019-05-05T06:01:29.885Z,3.40
2019-05-05T06:03:59.185Z,3.67
2019-05-05T06:06:28.488Z,3.83
2019-05-05T06:08:57.794Z,3.73
2019-05-05T06:11:27.090Z,3.67
2019-05-05T06:13:56.385Z,3.63
2019-05-05T06:16:25.682Z,3.80
2019-05-05T06:18:55.950Z,3.27
2019-05-05T06:21:26.215Z,3.67
2019-05-05T06:23:55.518Z,3.40
2019-05-05T06:26:25.787Z,3.87
2019-05-05T06:28:55.081Z,3.90
2019-05-05T06:31:24.603Z,3.20
2019-05-05T06:33:54.379Z,3.57
2019-05-05T06:36:23.789Z,3.40
2019-05-05T06:38:54.143Z,3.47
2019-05-05T06:41:25.202Z,3.37
2019-05-05T06:44:11.685Z,3.60
2019-05-05T06:47:00.660Z,3.53
2019-05-05T06:49:31.325Z,3.20
2019-05-05T06:52:00.798Z,3.67
2019-05-05T06:54:30.098Z,3.50
2019-05-05T06:56:59.401Z,3.67
2019-05-05T06:59:28.690Z,3.87
2019-05-05T07:01:57.977Z,3.60
2019-05-05T07:04:27.270Z,3.10
2019-05-05T07:06:57.428Z,3.80
2019-05-05T07:09:26.715Z,4.20
2019-05-05T07:11:56.019Z,3.87
2019-05-05T07:14:25.542Z,4.10
2019-05-05T07:16:54.986Z,4.23
2019-05-05T07:19:24.281Z,4.00
2019-05-05T07:21:53.959Z,4.70
2019-05-05T07:24:23.957Z,4.10
2019-05-05T07:26:54.129Z,3.67
2019-05-05T07:29:23.996Z,2.87
2019-05-05T07:31:54.554Z,2.47
2019-05-05T07:34:25.821Z,3.30
2019-05-05T07:36:55.116Z,3.40
2019-05-05T07:39:25.461Z,2.90
2019-05-05T07:41:54.750Z,2.50
2019-05-05T07:44:29.300Z,2.43
2019-05-05T07:46:58.747Z,2.57
2019-05-05T07:49:28.033Z,3.30
2019-05-05T07:51:57.351Z,3.10
2019-05-05T07:54:26.686Z,3.10
2019-05-05T07:56:55.974Z,2.67
2019-05-05T07:59:25.262Z,2.83
2019-05-05T08:01:54.934Z,2.77
2019-05-05T08:04:24.379Z,3.07
2019-05-05T08:06:53.990Z,2.70
2019-05-05T08:09:24.846Z,2.93
2019-05-05T08:11:54.369Z,3.40
2019-05-05T08:14:24.542Z,3.03
2019-05-05T08:16:58.637Z,2.40
2019-05-05T08:19:29.577Z,2.57
2019-05-05T08:21:58.875Z,2.90
2019-05-05T08:24:45.809Z,3.10
2019-05-05T08:27:16.755Z,2.07
2019-05-05T08:29:50.389Z,2.60
2019-05-05T08:32:27.138Z,2.23
2019-05-05T08:35:00.511Z,2.13
2019-05-05T08:37:27.421Z,2.20
2019-05-05T08:39:57.284Z,1.83
2019-05-05T08:42:26.642Z,2.10
2019-05-05T08:44:56.281Z,2.30
2019-05-05T08:47:28.175Z,2.37
2019-05-05T08:49:56.566Z,2.70
2019-05-05T08:52:25.857Z,2.10
2019-05-05T08:54:55.156Z,1.60
2019-05-05T08:57:24.457Z,1.70
2019-05-05T08:59:54.469Z,1.83
2019-05-05T09:02:24.049Z,1.70
2019-05-05T09:04:53.906Z,2.00
2019-05-05T09:07:24.319Z,2.20
2019-05-05T09:09:54.628Z,2.13
2019-05-05T09:12:26.261Z,1.80
2019-05-05T09:14:55.789Z,1.80
2019-05-05T09:17:27.935Z,1.70
2019-05-05T09:19:56.358Z,1.70
2019-05-05T09:22:25.990Z,2.00
2019-05-05T09:24:59.877Z,1.30
2019-05-05T09:27:39.919Z,1.17
2019-05-05T09:30:11.218Z,1.20
2019-05-05T09:32:43.745Z,1.23
2019-05-05T09:35:13.863Z,1.20
2019-05-05T09:37:44.477Z,1.20
2019-05-05T09:40:15.553Z,0.97
2019-05-05T09:42:44.854Z,1.47
2019-05-05T09:45:15.437Z,1.77
2019-05-05T09:47:45.073Z,1.70
2019-05-05T09:50:14.590Z,1.30
2019-05-05T09:52:44.406Z,1.30
2019-05-05T09:55:13.991Z,1.80
2019-05-05T09:57:44.426Z,1.93
2019-05-05T10:00:14.636Z,1.70
2019-05-05T10:02:44.338Z,1.80
2019-05-05T10:05:14.540Z,2.20
2019-05-05T10:07:44.212Z,1.57
2019-05-05T10:10:13.943Z,2.03
2019-05-05T10:12:44.612Z,1.83
2019-05-05T10:15:14.232Z,2.17
2019-05-05T10:17:43.970Z,1.63
2019-05-05T10:20:14.505Z,1.50
2019-05-05T10:22:44.955Z,1.60
2019-05-05T10:25:34.451Z,1.57
2019-05-05T10:28:06.146Z,1.60
2019-05-05T10:30:35.691Z,1.57
2019-05-05T10:33:04.985Z,1.33
2019-05-05T10:35:34.605Z,1.20
2019-05-05T10:38:04.216Z,1.30
2019-05-05T10:40:34.568Z,1.23
2019-05-05T10:43:04.736Z,1.50
2019-05-05T10:45:34.345Z,1.10
2019-05-05T10:48:04.221Z,1.27
2019-05-05T10:50:34.387Z,1.50
2019-05-05T10:53:04.776Z,1.43
2019-05-05T10:55:34.872Z,1.20
2019-05-05T10:58:04.369Z,1.57
2019-05-05T11:00:45.584Z,1.23
2019-05-05T11:03:15.304Z,1.60
2019-05-05T11:05:45.193Z,1.77
2019-05-05T11:08:14.867Z,1.90
2019-05-05T11:10:45.428Z,1.63
2019-05-05T11:13:14.918Z,1.60
2019-05-05T11:15:44.610Z,1.60
2019-05-05T11:18:14.978Z,1.63
2019-05-05T11:20:45.405Z,1.27
2019-05-05T11:23:15.386Z,1.23
2019-05-05T11:25:44.950Z,1.30
2019-05-05T11:28:14.241Z,1.50
2019-05-05T11:30:46.148Z,1.40
2019-05-05T11:33:34.973Z,1.27
2019-05-05T11:36:06.153Z,1.30
2019-05-05T11:38:35.450Z,1.40
2019-05-05T11:41:05.423Z,1.30
2019-05-05T11:43:34.707Z,1.10
2019-05-05T11:46:05.070Z,1.43
2019-05-05T11:48:34.531Z,1.17
2019-05-05T11:51:04.530Z,1.20
2019-05-05T11:53:34.991Z,1.37
2019-05-05T11:56:04.580Z,1.37
2019-05-05T11:58:34.077Z,1.47
2019-05-05T12:01:03.976Z,1.43
2019-05-05T12:03:34.043Z,1.30
2019-05-05T12:06:04.686Z,1.40
2019-05-05T12:08:34.704Z,1.70
2019-05-05T12:11:05.169Z,1.23
2019-05-05T12:13:34.538Z,1.13
2019-05-05T12:16:04.892Z,1.10
2019-05-05T12:18:34.545Z,1.10
2019-05-05T12:21:05.120Z,1.30
2019-05-05T12:23:36.266Z,1.47
2019-05-05T12:26:16.018Z,1.07
2019-05-05T12:28:46.998Z,0.97
2019-05-05T12:31:20.638Z,1.30
2019-05-05T12:33:49.926Z,1.00
2019-05-05T12:36:19.216Z,0.90
2019-05-05T12:38:49.946Z,1.00
2019-05-05T12:41:20.950Z,1.30
2019-05-05T12:43:50.410Z,0.97
2019-05-05T12:46:40.440Z,0.97
2019-05-05T12:49:11.375Z,1.27
2019-05-05T12:51:40.676Z,1.13
2019-05-05T12:54:09.962Z,1.13
2019-05-05T12:56:39.266Z,1.00
2019-05-05T12:59:10.204Z,0.77
2019-05-05T13:01:41.342Z,1.00
2019-05-05T13:04:10.710Z,1.03
2019-05-05T13:06:39.998Z,0.80
2019-05-05T13:09:09.929Z,1.00
2019-05-05T13:11:39.457Z,1.10
2019-05-05T13:14:08.829Z,1.50
2019-05-05T13:16:38.130Z,1.30
2019-05-05T13:19:09.144Z,1.13
2019-05-05T13:21:49.022Z,0.93
2019-05-05T13:24:23.810Z,0.93
2019-05-05T13:26:57.659Z,1.13
2019-05-05T13:29:27.024Z,0.90
2019-05-05T13:31:56.321Z,1.27
2019-05-05T13:34:25.690Z,1.30
2019-05-05T13:36:55.949Z,1.17
2019-05-05T13:39:25.245Z,1.10
2019-05-05T13:41:54.656Z,1.23
2019-05-05T13:44:25.595Z,1.30
2019-05-05T13:46:54.936Z,1.03
2019-05-05T13:49:25.935Z,1.03
2019-05-05T13:51:55.305Z,1.20
2019-05-05T13:54:24.597Z,1.37
2019-05-05T13:56:53.889Z,0.93
2019-05-05T13:59:25.614Z,0.90
2019-05-05T14:01:57.505Z,1.00
2019-05-05T14:04:26.873Z,1.13
2019-05-05T14:06:56.313Z,1.30
2019-05-05T14:09:25.618Z,1.30
2019-05-05T14:12:01.194Z,1.10
2019-05-05T14:14:30.664Z,1.10
2019-05-05T14:17:00.521Z,1.00
2019-05-05T14:19:29.891Z,1.10
2019-05-05T14:21:59.265Z,1.20
2019-05-05T14:24:44.351Z,1.00
2019-05-05T14:27:14.477Z,1.13
2019-05-05T14:29:46.802Z,1.27
2019-05-05T14:32:17.757Z,1.20
2019-05-05T14:35:05.010Z,1.00
2019-05-05T14:37:41.610Z,1.10
2019-05-05T14:40:11.155Z,1.70
2019-05-05T14:42:40.783Z,1.23
2019-05-05T14:45:11.961Z,1.60
2019-05-05T14:47:41.544Z,1.23
2019-05-05T14:50:12.873Z,1.43
2019-05-05T14:52:43.982Z,1.20
2019-05-05T14:55:14.034Z,1.00
2019-05-05T14:57:44.075Z,1.17
2019-05-05T15:00:15.403Z,1.40
2019-05-05T15:02:44.966Z,1.33
2019-05-05T15:05:33.802Z,1.50
2019-05-05T15:08:17.050Z,1.40
2019-05-05T15:10:48.055Z,1.40
2019-05-05T15:13:17.862Z,1.90
2019-05-05T15:15:47.152Z,1.30
2019-05-05T15:18:16.448Z,1.40
2019-05-05T15:20:45.734Z,1.10
2019-05-05T15:23:15.266Z,1.10
2019-05-05T15:25:44.705Z,1.20
2019-05-05T15:28:14.041Z,1.20
2019-05-05T15:30:44.113Z,1.60
2019-05-05T15:33:13.850Z,1.07
2019-05-05T15:35:46.310Z,1.27
2019-05-05T15:38:15.311Z,1.10
2019-05-05T15:40:46.497Z,1.53
2019-05-05T15:43:20.831Z,1.20
2019-05-05T15:45:54.658Z,1.50
2019-05-05T15:48:24.775Z,1.20
2019-05-05T15:50:55.818Z,1.30
2019-05-05T15:53:25.117Z,1.53
2019-05-05T15:55:54.432Z,1.30
2019-05-05T15:58:23.743Z,1.60
2019-05-05T16:00:55.161Z,1.10
2019-05-05T16:03:24.460Z,1.20
2019-05-05T16:05:54.282Z,1.20
2019-05-05T16:08:23.722Z,1.33
2019-05-05T16:10:54.641Z,1.10
2019-05-05T16:13:24.092Z,1.30
2019-05-05T16:15:55.731Z,1.47
2019-05-05T16:18:35.938Z,1.40
2019-05-05T16:21:15.570Z,1.20
2019-05-05T16:23:54.188Z,1.37
2019-05-05T16:26:24.571Z,0.97
2019-05-05T16:28:55.243Z,1.30
2019-05-05T16:31:24.658Z,1.20
2019-05-05T16:33:53.958Z,1.10
2019-05-05T16:36:24.313Z,1.27
2019-05-05T16:38:53.722Z,1.20
2019-05-05T16:41:23.985Z,1.23
2019-05-05T16:43:53.597Z,1.00
2019-05-05T16:46:23.930Z,1.30
2019-05-05T16:48:54.103Z,1.53
2019-05-05T16:51:25.137Z,1.30
2019-05-05T16:53:56.551Z,1.00
2019-05-05T16:56:26.172Z,1.27
2019-05-05T16:58:55.508Z,1.10
2019-05-05T17:01:24.854Z,1.10
2019-05-05T17:03:54.357Z,1.37
2019-05-05T17:06:24.418Z,1.30
2019-05-05T17:08:53.842Z,1.07
2019-05-05T17:11:24.536Z,1.20
2019-05-05T17:13:55.711Z,1.20
2019-05-05T17:16:44.181Z,1.30
2019-05-05T17:19:15.241Z,1.13
2019-05-05T17:21:47.203Z,1.30
2019-05-05T17:24:16.497Z,1.20
2019-05-05T17:26:45.796Z,1.10
2019-05-05T17:29:15.098Z,1.30
2019-05-05T17:31:44.560Z,1.13
2019-05-05T17:34:13.862Z,1.30
2019-05-05T17:36:45.131Z,1.40
2019-05-05T17:39:14.214Z,1.27
2019-05-05T17:41:45.396Z,1.13
2019-05-05T17:44:26.333Z,1.50
2019-05-05T17:47:06.105Z,1.63
2019-05-05T17:49:37.902Z,1.57
2019-05-05T17:52:11.530Z,1.50
2019-05-05T17:54:44.516Z,1.87
2019-05-05T17:57:14.215Z,1.30
2019-05-05T17:59:44.196Z,1.10
2019-05-05T18:02:13.559Z,1.20
2019-05-05T18:04:44.397Z,1.20
2019-05-05T18:07:16.398Z,1.20
2019-05-05T18:09:56.294Z,1.07
2019-05-05T18:12:44.545Z,1.50
2019-05-05T18:15:33.986Z,1.70
2019-05-05T18:18:04.368Z,1.17
2019-05-05T18:20:34.790Z,1.30
2019-05-05T18:23:04.094Z,1.93
2019-05-05T18:25:34.673Z,1.83
2019-05-05T18:28:15.751Z,1.90
2019-05-05T18:30:35.206Z,1.40
2019-05-05T18:33:04.557Z,1.50
2019-05-05T18:35:33.955Z,1.60
2019-05-05T18:38:04.059Z,1.80
2019-05-05T18:40:33.760Z,1.70
2019-05-05T18:43:04.904Z,1.77
2019-05-05T18:45:35.526Z,2.00
2019-05-05T18:48:05.003Z,1.90
2019-05-05T18:50:35.619Z,2.10
2019-05-05T18:53:04.983Z,2.83
2019-05-05T18:55:34.299Z,2.37
2019-05-05T18:58:05.297Z,2.00
2019-05-05T19:00:43.877Z,2.13
2019-05-05T19:03:20.565Z,1.90
2019-05-05T19:05:48.541Z,1.90
2019-05-05T19:08:24.479Z,2.10
2019-05-05T19:10:54.190Z,2.03
2019-05-05T19:13:24.409Z,1.80
2019-05-05T19:15:54.010Z,2.00
2019-05-05T19:18:24.487Z,2.00
2019-05-05T19:20:55.506Z,2.07
2019-05-05T19:23:24.938Z,1.70
2019-05-05T19:25:56.017Z,1.93
2019-05-05T19:28:41.183Z,2.00
2019-05-05T19:30:59.238Z,1.80
2019-05-05T19:33:28.529Z,1.97
2019-05-05T19:35:57.829Z,2.43
2019-05-05T19:38:27.113Z,2.77
2019-05-05T19:40:56.591Z,3.03
2019-05-05T19:43:25.996Z,2.43
2019-05-05T19:45:55.855Z,2.17
2019-05-05T19:48:25.214Z,2.77
2019-05-05T19:51:04.713Z,2.60
2019-05-05T19:53:35.539Z,2.30
2019-05-05T19:56:05.034Z,2.53
2019-05-05T19:58:36.521Z,2.63
2019-05-05T20:01:05.383Z,2.67
2019-05-05T20:03:36.462Z,2.57
2019-05-05T20:06:05.931Z,3.27
2019-05-05T20:08:40.772Z,2.40
2019-05-05T20:11:06.214Z,2.37
2019-05-05T20:13:35.573Z,2.47
2019-05-05T20:16:06.527Z,2.73
2019-05-05T20:18:36.397Z,2.53
2019-05-05T20:21:07.305Z,3.00
2019-05-05T20:23:36.847Z,2.50
2019-05-05T20:26:06.142Z,2.47
2019-05-05T20:28:35.426Z,2.30
2019-05-05T20:31:04.714Z,2.70
2019-05-05T20:33:44.273Z,2.33
2019-05-05T20:36:15.282Z,2.53
2019-05-05T20:38:51.932Z,2.90
2019-05-05T20:41:24.698Z,2.73
2019-05-05T20:43:54.215Z,2.80
2019-05-05T20:46:23.946Z,2.80
2019-05-05T20:48:54.632Z,2.53
2019-05-05T20:51:24.706Z,2.90
2019-05-05T20:53:54.430Z,2.83
2019-05-05T20:56:23.801Z,3.03
2019-05-05T20:58:54.892Z,2.97
2019-05-05T21:01:24.652Z,2.90
2019-05-05T21:03:54.036Z,3.10
2019-05-05T21:06:24.601Z,3.67
2019-05-05T21:08:54.000Z,2.70
2019-05-05T21:11:24.670Z,3.10
2019-05-05T21:13:54.448Z,3.40
2019-05-05T21:16:24.942Z,3.17
2019-05-05T21:18:54.799Z,3.47
2019-05-05T21:21:25.737Z,3.63
2019-05-05T21:23:56.946Z,4.00
2019-05-05T21:26:43.593Z,3.17
2019-05-05T21:29:14.032Z,3.93
2019-05-05T21:31:43.893Z,3.80
2019-05-05T21:34:14.028Z,4.27
2019-05-05T21:36:44.785Z,4.20
2019-05-05T21:39:14.819Z,3.87
2019-05-05T21:41:44.322Z,4.17
2019-05-05T21:44:14.683Z,4.40
2019-05-05T21:46:44.511Z,4.90
2019-05-05T21:49:13.897Z,4.90
2019-05-05T21:51:46.966Z,4.70
2019-05-05T21:54:34.264Z,5.10
2019-05-05T21:57:05.329Z,4.33
2019-05-05T21:59:34.618Z,4.40
2019-05-05T22:02:04.133Z,4.40
2019-05-05T22:04:33.820Z,5.13
2019-05-05T22:07:03.729Z,5.17
2019-05-05T22:09:33.209Z,4.80
2019-05-05T22:12:04.144Z,4.83
2019-05-05T22:14:34.152Z,5.30
2019-05-05T22:17:04.119Z,5.07
2019-05-05T22:19:35.200Z,5.37
2019-05-05T22:22:08.840Z,5.57
2019-05-05T22:24:38.129Z,5.33
2019-05-05T22:27:07.498Z,5.77
2019-05-05T22:29:36.786Z,5.53
2019-05-05T22:32:06.403Z,6.30
2019-05-05T22:34:35.756Z,5.80
2019-05-05T22:37:08.906Z,6.10
2019-05-05T22:39:36.031Z,5.50
2019-05-05T22:42:05.332Z,5.70
2019-05-05T22:44:34.712Z,6.00
2019-05-05T22:47:05.865Z,6.20
2019-05-05T22:49:35.155Z,6.03
2019-05-05T22:52:04.569Z,5.90
2019-05-05T22:54:33.935Z,6.13
2019-05-05T22:57:04.575Z,6.27
2019-05-05T22:59:34.109Z,6.93
2019-05-05T23:02:04.039Z,6.77
2019-05-05T23:04:38.045Z,6.83
2019-05-05T23:07:09.003Z,5.97
2019-05-05T23:09:38.298Z,6.20
2019-05-05T23:12:07.599Z,6.70
2019-05-05T23:14:36.898Z,6.37
2019-05-05T23:17:19.710Z,7.00
2019-05-05T23:19:57.368Z,6.57
2019-05-05T23:22:28.302Z,6.77
2019-05-05T23:25:04.782Z,6.20
2019-05-05T23:27:49.795Z,7.00
2019-05-05T23:30:23.789Z,7.67
2019-05-05T23:32:54.826Z,6.03
2019-05-05T23:35:24.327Z,6.63
2019-05-05T23:37:55.292Z,6.17
2019-05-05T23:40:27.369Z,6.83
2019-05-05T23:42:56.666Z,6.57
2019-05-05T23:45:25.961Z,6.30
2019-05-05T23:47:55.605Z,6.13
2019-05-05T23:50:24.901Z,6.63
2019-05-05T23:52:54.760Z,6.07
2019-05-05T23:55:24.284Z,6.17
2019-05-05T23:57:54.740Z,6.03
